Time;durP1;ratioP1;P1;durP2;ratioP2;P2;SDS_P1;SDS_P2;PMS_P1;PMS_P2;Temp;Humidity;BMP_temperature;BMP_pressure;BME280_temperature;BME280_humidity;BME280_pressure;Samples;Min_cycle;Max_cycle;Signal;HPM_P1;HPM_P2
2022/02/10 00:22:16;;;;;;;6.53;5.18;;;;;;;7.26;80.74;101459.03;5029476;28;20447;-23
2022/02/10 00:35:33;;;;;;;5.53;4.88;;;;;;;7.20;80.47;101451.06;5028365;28;20053;-23
2022/02/10 00:37:59;;;;;;;6.38;5.35;;;;;;;7.21;80.40;101454.56;5028557;28;20024;-23
2022/02/10 00:40:32;;;;;;;6.05;5.13;;;;;;;7.16;80.65;101451.84;5028505;28;20034;-23
2022/02/10 00:42:59;;;;;;;6.10;5.43;;;;;;;7.17;80.48;101466.78;5027231;28;20497;-23
2022/02/10 00:45:28;;;;;;;7.10;5.05;;;;;;;7.17;80.65;101465.00;5027781;28;20032;-24
2022/02/10 00:47:57;;;;;;;6.07;4.95;;;;;;;7.17;81.12;101462.38;5026159;28;20212;-23
2022/02/10 00:50:25;;;;;;;5.57;4.63;;;;;;;7.15;80.80;101464.13;5028779;28;20033;-25
2022/02/10 00:52:58;;;;;;;5.25;4.72;;;;;;;7.17;80.96;101456.28;5027411;28;20509;-23
2022/02/10 00:55:27;;;;;;;6.22;5.55;;;;;;;7.16;80.82;101451.84;5024855;28;20534;-23
2022/02/10 00:57:53;;;;;;;7.07;4.93;;;;;;;7.14;81.11;101450.97;5027435;28;20022;-25
2022/02/10 01:29:56;;;;;;;6.18;5.65;;;;;;;7.05;80.98;101431.59;5005338;28;19935;-23
2022/02/10 01:32:22;;;;;;;5.63;5.07;;;;;;;7.04;80.93;101424.56;5006639;28;20521;-23
2022/02/10 01:34:50;;;;;;;5.80;5.28;;;;;;;7.03;81.20;101419.28;5009753;28;20034;-23
2022/02/10 01:37:17;;;;;;;6.45;5.85;;;;;;;6.99;81.02;101407.88;5027908;28;20624;-23
2022/02/10 01:39:49;;;;;;;6.95;5.63;;;;;;;7.02;81.21;101407.03;5027417;28;20029;-23
2022/02/10 02:04:22;;;;;;;6.80;6.03;;;;;;;6.99;81.19;101392.13;5030538;28;20040;-25
2022/02/10 02:06:49;;;;;;;7.95;5.43;;;;;;;6.97;81.36;101383.34;5031555;28;20029;-23
2022/02/10 02:09:16;;;;;;;5.82;5.22;;;;;;;6.98;81.47;101372.00;5031049;28;20389;-23
2022/02/10 02:11:44;;;;;;;7.97;5.50;;;;;;;6.97;81.79;101380.72;5031266;28;20100;-25
2022/02/10 02:14:19;;;;;;;6.25;5.65;;;;;;;6.99;81.31;101367.63;5031634;28;20030;-24
2022/02/10 02:16:53;;;;;;;9.82;5.90;;;;;;;6.96;81.78;101367.56;5030724;28;20013;-23
2022/02/10 02:19:19;;;;;;;6.78;6.05;;;;;;;6.96;81.46;101368.47;5030511;28;20118;-23
2022/02/10 02:21:46;;;;;;;8.77;5.78;;;;;;;6.95;81.33;101363.19;5031800;28;20049;-23
2022/02/10 02:24:15;;;;;;;6.20;5.60;;;;;;;6.96;81.39;101362.31;5028407;28;20029;-23
2022/02/10 02:26:41;;;;;;;6.53;5.78;;;;;;;6.94;81.66;101354.47;5030750;28;20029;-23
2022/02/10 02:29:09;;;;;;;7.00;5.57;;;;;;;6.95;81.48;101350.97;5029823;28;20163;-24
2022/02/10 02:31:53;;;;;;;7.50;6.15;;;;;;;6.94;81.59;101351.84;5030874;28;20025;-23
2022/02/10 02:39:54;;;;;;;7.70;5.57;;;;;;;6.94;81.77;101330.84;5029871;28;20404;-23
2022/02/10 03:07:07;;;;;;;7.72;5.43;;;;;;;6.87;81.70;101324.59;5030517;28;20212;-23
2022/02/10 03:09:39;;;;;;;6.32;5.10;;;;;;;6.87;81.41;101315.88;5027705;28;20053;-26
2022/02/10 03:12:04;;;;;;;5.97;5.30;;;;;;;6.87;81.90;101311.50;5032838;28;20018;-23
2022/02/10 03:14:35;;;;;;;7.38;5.60;;;;;;;6.86;81.50;101306.22;5028238;28;20037;-24
2022/02/10 04:08:07;;;;;;;6.70;6.00;;;;;;;6.69;81.96;101241.28;5023814;28;20033;-23
2022/02/10 04:13:35;;;;;;;7.50;5.65;;;;;;;6.67;81.88;101229.91;5029307;28;20025;-23
2022/02/10 04:16:13;;;;;;;6.72;5.95;;;;;;;6.67;81.99;101232.53;5027573;28;20570;-23
2022/02/10 04:21:13;;;;;;;7.45;6.22;;;;;;;6.66;82.25;101225.50;5028167;28;20040;-23
2022/02/10 05:06:20;;;;;;;5.30;4.80;;;;;;;6.42;82.04;101169.22;5095349;28;20028;-19
2022/02/10 05:08:52;;;;;;;5.80;5.22;;;;;;;6.41;81.97;101173.56;5093665;28;20024;-19
2022/02/10 05:21:46;;;;;;;6.07;5.22;;;;;;;6.35;81.80;101172.59;5094340;28;20036;-21
2022/02/10 05:32:46;;;;;;;6.13;4.68;;;;;;;6.29;82.24;101158.56;5091880;28;20034;-20
2022/02/10 05:37:41;;;;;;;5.60;5.05;;;;;;;6.26;81.63;101155.88;5093187;28;20174;-21
2022/02/10 05:40:13;;;;;;;7.38;4.88;;;;;;;6.24;81.79;101147.09;5093774;28;20168;-22
2022/02/10 05:43:16;;;;;;;5.78;5.15;;;;;;;6.23;81.64;101155.81;5093198;28;20378;-21
2022/02/10 05:45:34;;;;;;;6.32;5.30;;;;;;;6.22;81.69;101154.06;5090781;28;20032;-21
2022/02/10 05:48:30;;;;;;;9.18;5.28;;;;;;;6.19;81.62;101148.75;5090734;28;20024;-19
2022/02/10 05:59:14;;;;;;;5.78;4.85;;;;;;;6.13;81.94;101143.41;5079661;28;20056;-22
2022/02/10 06:02:00;;;;;;;6.55;5.93;;;;;;;6.11;81.89;101145.13;5077464;28;20494;-20
2022/02/10 06:41:53;;;;;;;7.15;5.60;;;;;;;5.75;81.68;101087.78;5078374;28;20092;-21
2022/02/10 07:06:30;;;;;;;7.85;6.40;;;;;;;5.52;82.20;101077.78;5069618;28;20049;-20
2022/02/10 07:09:14;;;;;;;8.70;6.35;;;;;;;5.49;81.89;101074.22;5075323;28;20086;-20
2022/02/10 07:17:16;;;;;;;7.80;6.50;;;;;;;5.42;82.08;101077.56;5077869;28;20027;-20
2022/02/10 07:52:29;;;;;;;10.65;8.15;;;;;;;5.21;82.57;101098.13;5073992;28;20468;-19
2022/02/10 07:58:08;;;;;;;7.70;6.90;;;;;;;5.15;82.21;101090.16;5074563;28;20029;-19
2022/02/10 08:53:18;;;;;;;10.75;7.75;;;;;;;5.78;83.65;101027.59;5080365;28;20362;-19
2022/02/10 09:05:57;;;;;;;9.75;7.57;;;;;;;6.17;82.95;101050.94;5079372;28;20076;-18
2022/02/10 09:59:33;;;;;;;12.65;8.32;;;;;;;7.41;79.58;101007.00;5077432;28;20048;-20
2022/02/10 10:02:12;;;;;;;8.80;7.45;;;;;;;7.43;79.72;100996.50;5079369;28;20047;-22
2022/02/10 10:04:51;;;;;;;8.95;7.95;;;;;;;7.52;79.08;101000.97;5079918;28;20028;-20
2022/02/10 10:09:58;;;;;;;10.07;8.25;;;;;;;7.63;78.84;100993.19;5078126;28;20030;-19
2022/02/10 10:13:02;;;;;;;12.55;8.32;;;;;;;7.67;78.49;100990.59;5078119;28;20402;-19
2022/02/10 10:18:40;;;;;;;11.93;8.13;;;;;;;7.81;79.05;100988.06;5079724;28;20023;-21
2022/02/10 10:54:19;;;;;;;10.52;7.78;;;;;;;8.45;76.61;100958.69;5073400;28;20103;-20
2022/02/10 10:56:47;;;;;;;10.82;8.23;;;;;;;8.54;76.70;100990.28;5080024;28;20482;-21
2022/02/10 11:38:26;;;;;;;12.93;8.38;;;;;;;9.09;74.14;100972.94;5074036;28;20441;-20
2022/02/10 11:44:05;;;;;;;10.80;7.93;;;;;;;9.10;74.18;100977.31;5075924;28;20070;-20
2022/02/10 11:47:28;;;;;;;9.00;8.07;;;;;;;9.09;73.61;100969.41;5075498;28;20427;-19
2022/02/10 12:01:52;;;;;;;10.02;8.65;;;;;;;9.07;73.88;100969.41;5051091;28;20056;-19
2022/02/10 14:14:18;;;;;;;16.80;11.40;;;;;;;8.27;76.89;101025.19;5078532;28;20090;-21
2022/02/10 14:16:51;;;;;;;14.55;11.32;;;;;;;8.29;76.89;101040.06;5078606;28;20098;-19
2022/02/10 14:19:28;;;;;;;13.85;11.77;;;;;;;8.29;77.04;101029.56;5077342;28;20022;-19
2022/02/10 14:27:10;;;;;;;17.05;12.60;;;;;;;8.20;77.29;101018.97;5076972;28;20036;-19
2022/02/10 14:29:39;;;;;;;12.52;10.88;;;;;;;8.24;77.17;101028.66;5078373;28;20378;-19
2022/02/10 14:32:06;;;;;;;14.18;11.82;;;;;;;8.24;77.18;101033.03;5077199;28;20450;-20
2022/02/10 14:34:31;;;;;;;13.57;10.73;;;;;;;8.23;76.93;101034.78;5078938;28;20036;-19
2022/02/10 14:37:18;;;;;;;17.65;11.30;;;;;;;8.21;77.16;101040.00;5078190;28;21466;-20
2022/02/10 15:13:14;;;;;;;17.40;12.55;;;;;;;7.94;77.37;101075.72;5079857;28;20040;-19
2022/02/10 16:12:59;;;;;;;20.02;15.93;;;;;;;7.49;78.90;101114.69;5072256;28;20467;-22
2022/02/10 16:17:27;;;;;;;21.90;15.20;;;;;;;7.48;78.75;101126.06;5073050;28;20058;-21
2022/02/10 16:19:54;;;;;;;16.85;14.05;;;;;;;7.47;78.94;101126.91;5075116;28;20024;-20
2022/02/10 16:24:57;;;;;;;22.35;15.80;;;;;;;7.43;79.12;101132.97;5075918;28;20023;-20
2022/02/10 16:27:26;;;;;;;15.52;13.05;;;;;;;7.44;79.26;101126.91;5074322;28;20037;-24
2022/02/10 16:29:59;;;;;;;17.58;13.25;;;;;;;7.42;79.09;101125.97;5069257;28;20031;-20
2022/02/10 16:32:25;;;;;;;17.98;13.02;;;;;;;7.40;79.02;101122.47;5076134;28;20031;-22
2022/02/10 16:34:50;;;;;;;13.65;12.07;;;;;;;7.37;78.96;101118.06;5073892;28;20022;-19
2022/02/10 16:37:17;;;;;;;14.57;12.02;;;;;;;7.38;78.97;101118.94;5067889;28;20524;-22
2022/02/10 16:39:42;;;;;;;14.90;11.52;;;;;;;7.38;79.28;101118.94;5076337;28;20028;-21
2022/02/10 16:42:10;;;;;;;14.57;11.70;;;;;;;7.36;79.27;101113.66;5070591;28;20264;-19
2022/02/10 16:44:37;;;;;;;12.27;10.15;;;;;;;7.32;79.25;101119.75;5069710;28;20040;-19
2022/02/10 16:47:03;;;;;;;14.05;9.98;;;;;;;7.35;78.94;101124.16;5071062;28;20318;-19
2022/02/10 16:49:28;;;;;;;12.73;9.70;;;;;;;7.31;78.98;101124.09;5074208;28;20483;-24
2022/02/10 16:51:54;;;;;;;12.00;9.27;;;;;;;7.31;79.11;101124.09;5075482;28;21722;-24
2022/02/10 16:54:44;;;;;;;12.70;8.38;;;;;;;7.28;78.97;101131.97;5073793;28;20021;-20
2022/02/10 16:57:31;;;;;;;11.35;9.20;;;;;;;7.27;78.99;101130.19;5073562;28;20040;-22
2022/02/10 17:19:03;;;;;;;6.78;5.97;;;;;;;7.11;79.10;101150.13;5071932;28;20166;-23
2022/02/10 17:27:08;;;;;;;8.65;7.18;;;;;;;7.04;79.19;101151.75;5077691;28;20042;-24
2022/02/10 17:29:47;;;;;;;8.05;6.65;;;;;;;7.03;79.08;101155.25;5072259;28;20012;-24
2022/02/10 17:32:28;;;;;;;7.28;6.40;;;;;;;7.02;79.53;101153.50;5076709;28;20608;-24
2022/02/10 17:46:02;;;;;;;11.55;8.68;;;;;;;6.94;79.42;101139.41;5076611;28;20042;-24
2022/02/10 17:54:08;;;;;;;15.07;11.90;;;;;;;6.87;79.49;101155.91;5065543;28;20513;-24
2022/02/10 17:56:34;;;;;;;18.00;12.07;;;;;;;6.88;79.71;101152.41;5076140;28;20043;-23
2022/02/10 17:59:00;;;;;;;16.55;12.35;;;;;;;6.84;80.02;101145.38;5077213;28;20016;-23
2022/02/10 18:01:26;;;;;;;14.27;12.32;;;;;;;6.84;79.73;101145.38;5077292;28;20075;-24
2022/02/10 18:03:52;;;;;;;16.15;13.32;;;;;;;6.80;79.96;101150.56;5078096;28;20020;-24
2022/02/10 18:06:27;;;;;;;20.33;14.45;;;;;;;6.82;80.00;101149.69;5077303;28;20032;-23
2022/02/10 18:16:25;;;;;;;19.63;15.38;;;;;;;6.75;80.46;101156.59;5081628;28;20105;-25
2022/02/10 18:18:55;;;;;;;17.05;14.63;;;;;;;6.73;80.53;101169.69;5076599;28;20436;-25
2022/02/10 18:24:44;;;;;;;18.98;15.88;;;;;;;6.71;80.14;101173.16;5079044;28;20054;-25
2022/02/10 18:29:32;;;;;;;19.48;15.43;;;;;;;6.68;80.34;101169.63;5076665;28;20040;-23
2022/02/10 18:38:21;;;;;;;18.65;14.65;;;;;;;6.65;80.05;101173.94;5074644;28;20092;-24
2022/02/10 19:10:02;;;;;;;17.30;13.75;;;;;;;6.51;80.55;101160.63;5075740;28;20081;-26
2022/02/10 19:12:31;;;;;;;18.75;14.52;;;;;;;6.49;80.42;101168.47;5072866;28;20123;-25
2022/02/10 19:15:14;;;;;;;16.25;13.40;;;;;;;6.48;80.36;101169.34;5073676;28;20036;-25
2022/02/10 19:17:40;;;;;;;17.15;13.65;;;;;;;6.48;80.76;101173.69;5069857;28;20031;-22
2022/02/10 19:20:07;;;;;;;16.77;12.80;;;;;;;6.46;80.38;101168.41;5074595;28;20042;-24
2022/02/10 19:22:32;;;;;;;19.17;13.88;;;;;;;6.45;80.30;101171.91;5075577;28;20036;-25
2022/02/10 19:24:58;;;;;;;14.40;12.82;;;;;;;6.44;80.17;101175.38;5076080;28;20032;-25
2022/02/10 19:27:23;;;;;;;16.13;13.77;;;;;;;6.44;80.17;101174.50;5078786;28;20032;-23
2022/02/10 19:29:56;;;;;;;17.17;12.45;;;;;;;6.43;80.13;101168.34;5079241;28;20028;-24
2022/02/10 19:32:21;;;;;;;18.48;12.85;;;;;;;6.42;80.53;101177.09;5077853;28;20024;-25
2022/02/10 19:34:48;;;;;;;15.63;12.80;;;;;;;6.39;80.39;101183.16;5076968;28;20024;-24
2022/02/10 19:37:16;;;;;;;16.98;12.57;;;;;;;6.39;80.45;101177.03;5075028;28;21152;-25
2022/02/10 19:39:43;;;;;;;15.38;12.15;;;;;;;6.38;80.42;101178.78;5077301;28;20027;-23
2022/02/10 19:42:09;;;;;;;14.82;12.43;;;;;;;6.38;80.25;101176.16;5074975;28;20040;-23
2022/02/10 19:44:35;;;;;;;13.93;11.77;;;;;;;6.38;80.76;101180.50;5077078;28;20039;-24
2022/02/10 19:47:03;;;;;;;16.98;12.23;;;;;;;6.36;80.67;101179.59;5072035;28;20553;-25
2022/02/10 19:49:29;;;;;;;13.35;11.15;;;;;;;6.36;80.79;101184.84;5079001;28;20308;-24
2022/02/10 19:51:54;;;;;;;13.23;11.18;;;;;;;6.35;80.51;101185.69;5069623;28;20032;-25
2022/02/10 19:54:29;;;;;;;13.80;11.23;;;;;;;6.33;80.32;101177.81;5071681;28;20099;-25
2022/02/10 19:56:57;;;;;;;12.90;10.90;;;;;;;6.32;80.52;101181.28;5076950;28;20036;-24
2022/02/10 19:59:26;;;;;;;12.77;10.70;;;;;;;6.33;80.70;101182.19;5074574;28;20493;-24
2022/02/10 20:01:52;;;;;;;12.65;10.70;;;;;;;6.32;80.30;101190.88;5079562;28;20414;-23
2022/02/10 20:04:20;;;;;;;14.02;10.30;;;;;;;6.31;80.56;101191.75;5078032;28;20034;-25
2022/02/10 20:06:46;;;;;;;11.82;9.88;;;;;;;6.30;80.61;101190.84;5072967;28;20027;-24
2022/02/10 20:09:11;;;;;;;11.73;10.18;;;;;;;6.25;80.09;101188.16;5078540;28;20063;-23
2022/02/10 20:11:37;;;;;;;13.82;10.45;;;;;;;6.27;80.72;101191.69;5077271;28;20038;-25
2022/02/10 20:14:03;;;;;;;13.02;10.65;;;;;;;6.26;80.44;101194.28;5070328;28;20493;-25
2022/02/10 20:16:29;;;;;;;13.45;10.65;;;;;;;6.25;80.17;101184.66;5072748;28;20070;-24
2022/02/10 20:18:54;;;;;;;13.65;11.05;;;;;;;6.21;80.22;101183.75;5074626;28;20814;-23
2022/02/10 20:21:20;;;;;;;11.77;10.57;;;;;;;6.22;80.50;101193.34;5076737;28;20032;-24
2022/02/10 20:23:46;;;;;;;12.60;10.20;;;;;;;6.22;80.42;101188.13;5073265;28;20722;-24
2022/02/10 20:26:13;;;;;;;12.73;10.32;;;;;;;6.23;80.55;101194.22;5070806;28;20107;-23
2022/02/10 20:28:39;;;;;;;11.50;9.88;;;;;;;6.21;80.40;101188.97;5078462;28;20027;-24
2022/02/10 20:31:07;;;;;;;12.63;9.80;;;;;;;6.20;80.80;101200.28;5074260;28;20495;-25
2022/02/10 20:33:33;;;;;;;13.95;9.90;;;;;;;6.18;80.49;101193.25;5074080;28;20025;-24
2022/02/10 20:36:01;;;;;;;11.93;10.05;;;;;;;6.16;80.83;101191.50;5082343;28;20377;-25
2022/02/10 20:38:29;;;;;;;10.93;9.77;;;;;;;6.15;80.25;101195.00;5076351;28;20016;-24
2022/02/10 20:40:59;;;;;;;12.18;9.57;;;;;;;6.14;80.56;101198.44;5077169;28;20390;-24
2022/02/10 20:43:25;;;;;;;11.23;9.13;;;;;;;6.15;80.23;101200.22;5075200;28;20044;-22
2022/02/10 20:45:57;;;;;;;11.82;10.10;;;;;;;6.12;80.86;101202.78;5078847;28;20036;-23
2022/02/10 20:48:24;;;;;;;12.27;10.05;;;;;;;6.11;80.57;101198.38;5077358;28;20177;-25
2022/02/10 20:50:54;;;;;;;9.38;8.38;;;;;;;6.09;80.49;101193.97;5076184;28;20028;-25
2022/02/10 20:53:20;;;;;;;12.25;9.60;;;;;;;6.11;80.68;101202.75;5080148;28;20043;-24
2022/02/10 20:55:46;;;;;;;9.55;8.52;;;;;;;6.09;80.34;101194.88;5075785;28;20047;-25
2022/02/10 20:58:11;;;;;;;9.50;8.23;;;;;;;6.07;80.77;101190.47;5075933;28;20081;-23
2022/02/10 21:00:36;;;;;;;9.80;8.18;;;;;;;6.07;80.88;101180.84;5071502;28;20111;-21
2022/02/10 21:03:02;;;;;;;9.13;8.15;;;;;;;6.06;80.34;101181.72;5073641;28;20114;-25
2022/02/10 21:05:33;;;;;;;11.73;8.85;;;;;;;6.05;80.68;101187.81;5075606;28;20115;-22
2022/02/10 21:08:07;;;;;;;8.38;7.28;;;;;;;6.00;80.64;101179.84;5081254;28;20079;-24
2022/02/10 21:10:34;;;;;;;9.82;7.95;;;;;;;6.03;80.53;101185.16;5077463;28;20029;-24
2022/02/10 21:12:59;;;;;;;9.43;7.70;;;;;;;6.02;80.44;101187.72;5075206;28;20385;-24
2022/02/10 21:15:32;;;;;;;9.55;7.68;;;;;;;5.97;80.89;101195.50;5077371;28;20399;-24
2022/02/10 21:18:02;;;;;;;9.55;8.38;;;;;;;6.00;80.90;101198.16;5077221;28;20032;-25
2022/02/10 21:20:30;;;;;;;8.00;7.20;;;;;;;5.96;80.62;101190.22;5078806;28;20055;-24
2022/02/10 21:25:37;;;;;;;8.25;7.43;;;;;;;5.94;81.01;101187.59;5079071;28;20207;-24
2022/02/10 21:28:10;;;;;;;9.70;7.43;;;;;;;5.95;81.02;101199.84;5083990;28;20078;-24
2022/02/10 21:30:35;;;;;;;7.35;6.45;;;;;;;5.94;80.52;101195.47;5079195;28;20089;-25
2022/02/10 21:33:03;;;;;;;7.50;6.60;;;;;;;5.95;80.63;101191.09;5079041;28;20462;-24
2022/02/10 21:38:17;;;;;;;7.78;6.97;;;;;;;5.93;80.57;101192.81;5081303;28;20089;-25
2022/02/10 22:19:47;;;;;;;4.55;4.15;;;;;;;5.74;80.97;101197.69;5075827;28;20423;-24
2022/02/10 22:22:23;;;;;;;6.63;4.35;;;;;;;5.73;80.83;101196.78;5078093;28;20051;-25
2022/02/10 22:24:48;;;;;;;5.78;4.40;;;;;;;5.70;80.64;101196.72;5076599;28;20027;-23
2022/02/10 22:27:18;;;;;;;4.63;4.22;;;;;;;5.69;80.76;101189.75;5078239;28;20032;-21
2022/02/10 22:29:50;;;;;;;4.93;4.45;;;;;;;5.68;81.24;101190.59;5081971;28;20071;-25
2022/02/10 22:33:08;;;;;;;4.68;4.10;;;;;;;5.69;80.88;101200.22;5076046;28;20078;-25
2022/02/10 22:35:04;;;;;;;5.60;3.97;;;;;;;5.68;80.61;101195.84;5079959;28;20040;-24
2022/02/10 22:37:29;;;;;;;5.15;3.88;;;;;;;5.68;80.71;101200.19;5080280;28;20024;-23
2022/02/10 22:39:55;;;;;;;4.22;3.83;;;;;;;5.67;80.45;101206.28;5078692;28;20378;-23
2022/02/10 22:42:25;;;;;;;4.05;3.65;;;;;;;5.65;81.06;101201.00;5081307;28;20123;-24
2022/02/10 22:44:50;;;;;;;3.67;3.30;;;;;;;5.64;80.99;101201.88;5079711;28;20044;-24
2022/02/10 22:47:16;;;;;;;4.22;3.83;;;;;;;5.61;80.79;101201.81;5075866;28;20074;-25
2022/02/10 22:49:41;;;;;;;3.17;2.88;;;;;;;5.62;80.85;101203.56;5079448;28;20111;-22
2022/02/10 22:52:07;;;;;;;3.35;3.05;;;;;;;5.60;80.89;101208.75;5078259;28;20163;-24
2022/02/10 22:54:32;;;;;;;3.47;3.17;;;;;;;5.60;81.30;101210.50;5079775;28;20485;-24
2022/02/10 22:56:58;;;;;;;3.35;3.13;;;;;;;5.59;81.24;101201.75;5079835;28;20047;-24
2022/02/10 22:59:24;;;;;;;3.10;2.80;;;;;;;5.57;80.81;101203.44;5080937;28;20429;-24
2022/02/10 23:01:50;;;;;;;3.53;3.22;;;;;;;5.58;80.64;101201.72;5080446;28;20478;-24
2022/02/10 23:04:15;;;;;;;2.63;2.42;;;;;;;5.57;81.36;101208.69;5080311;28;20521;-25
2022/02/10 23:06:41;;;;;;;3.13;2.83;;;;;;;5.55;81.21;101202.56;5080371;28;20396;-24
2022/02/10 23:09:30;;;;;;;3.35;2.97;;;;;;;5.56;81.15;101198.19;5077038;28;20111;-25
2022/02/10 23:11:57;;;;;;;3.13;2.83;;;;;;;5.54;80.74;101200.81;5074231;28;20379;-25
2022/02/10 23:14:22;;;;;;;4.22;2.80;;;;;;;5.53;80.89;101209.47;5078331;28;20483;-25
2022/02/10 23:16:48;;;;;;;2.67;2.47;;;;;;;5.52;81.19;101212.94;5077042;28;20029;-23
2022/02/10 23:19:15;;;;;;;3.58;2.90;;;;;;;5.51;81.58;101209.44;5081918;28;20606;-24
2022/02/10 23:21:40;;;;;;;4.28;2.70;;;;;;;5.52;81.20;101216.47;5077058;28;20446;-25
2022/02/10 23:24:06;;;;;;;3.05;2.70;;;;;;;5.49;80.87;101211.16;5076040;28;20095;-23
2022/02/10 23:26:32;;;;;;;3.30;2.40;;;;;;;5.49;81.63;101212.88;5076526;28;20510;-24
2022/02/10 23:28:58;;;;;;;2.70;2.50;;;;;;;5.48;81.01;101214.63;5075497;28;20016;-25
2022/02/10 23:31:26;;;;;;;2.95;2.55;;;;;;;5.46;81.37;101221.56;5073584;28;20036;-24
2022/02/10 23:33:56;;;;;;;2.85;2.55;;;;;;;5.47;80.96;101225.94;5075496;28;20020;-24
2022/02/10 23:39:14;;;;;;;2.40;2.20;;;;;;;5.44;80.98;101228.47;5076358;28;20474;-24
2022/02/10 23:41:54;;;;;;;2.78;2.30;;;;;;;5.41;81.09;101219.69;5081380;28;20028;-24
2022/02/10 23:44:26;;;;;;;3.28;2.97;;;;;;;5.41;81.21;101231.06;5078975;28;20658;-22
2022/02/10 23:46:52;;;;;;;2.83;2.13;;;;;;;5.41;81.03;101224.94;5075992;28;20111;-24
2022/02/10 23:49:19;;;;;;;3.45;2.40;;;;;;;5.39;81.19;101227.50;5076429;28;20123;-23
2022/02/10 23:51:50;;;;;;;3.00;2.58;;;;;;;5.38;80.60;101225.75;5079990;28;20100;-24
2022/02/10 23:54:16;;;;;;;;;;;;;;;5.37;81.20;101224.00;5081948;28;20134;-24
2022/02/10 23:56:47;;;;;;;3.38;2.58;;;;;;;5.35;80.99;101220.44;5080251;28;20018;-25
2022/02/10 23:59:22;;;;;;;;;;;;;;;5.35;80.72;101223.97;5074178;28;20016;-25
